Time;durP1;ratioP1;P1;durP2;ratioP2;P2;SDS_P1;SDS_P2;PMS_P1;PMS_P2;Temp;Humidity;BMP_temperature;BMP_pressure;BME280_temperature;BME280_humidity;BME280_pressure;Samples;Min_cycle;Max_cycle;Signal;HPM_P1;HPM_P2
2022/03/19 00:01:13;;;;;;;;;;;22.20;50.70;;;;;;5079800;28;945;-33
2022/03/19 00:03:40;;;;;;;;;;;22.20;50.80;;;;;;5079868;28;1004;-33
2022/03/19 00:06:08;;;;;;;;;;;22.20;50.60;;;;;;5078438;28;1015;-33
2022/03/19 00:08:35;;;;;;;;;;;22.20;50.70;;;;;;5079247;28;1914;-33
2022/03/19 00:11:02;;;;;;;;;;;22.20;50.60;;;;;;5080555;28;987;-33
2022/03/19 00:13:28;;;;;;;;;;;22.20;50.60;;;;;;5079669;28;1008;-33
2022/03/19 00:15:55;;;;;;;;;;;22.10;50.50;;;;;;5079487;28;979;-34
2022/03/19 00:18:23;;;;;;;;;;;22.10;50.60;;;;;;5078066;28;989;-33
2022/03/19 00:20:50;;;;;;;;;;;22.10;50.70;;;;;;5080163;28;964;-33
2022/03/19 00:23:18;;;;;;;;;;;22.10;50.70;;;;;;5078052;28;973;-33
2022/03/19 00:25:45;;;;;;;;;;;22.10;50.70;;;;;;5078579;28;941;-33
2022/03/19 00:28:12;;;;;;;;;;;22.10;50.60;;;;;;5079859;28;1977;-33
2022/03/19 00:30:42;;;;;;;;;;;22.10;50.70;;;;;;5079442;28;1862;-33
2022/03/19 00:33:09;;;;;;;;;;;22.10;50.70;;;;;;5079370;28;967;-33
2022/03/19 00:35:36;;;;;;;;;;;22.10;50.60;;;;;;5079346;28;940;-33
2022/03/19 00:38:04;;;;;;;;;;;22.10;50.70;;;;;;5079563;28;945;-33
2022/03/19 00:40:33;;;;;;;;;;;22.10;50.70;;;;;;5078763;28;1019;-33
2022/03/19 00:43:00;;;;;;;;;;;22.10;50.70;;;;;;5079407;28;908;-33
2022/03/19 00:45:28;;;;;;;;;;;22.10;50.70;;;;;;5078461;28;834;-33
2022/03/19 00:47:55;;;;;;;;;;;22.10;50.70;;;;;;5078653;28;1971;-33
2022/03/19 00:50:22;;;;;;;;;;;22.10;50.70;;;;;;5079164;28;1083;-33
2022/03/19 00:52:49;;;;;;;;;;;22.00;50.70;;;;;;5079253;28;1004;-33
2022/03/19 00:55:16;;;;;;;;;;;22.10;50.60;;;;;;5079116;28;961;-33
2022/03/19 00:57:45;;;;;;;;;;;22.10;50.70;;;;;;5078963;28;973;-33
2022/03/19 01:00:14;;;;;;;;;;;22.00;50.70;;;;;;5079095;28;1019;-33
2022/03/19 01:02:41;;;;;;;;;;;22.00;50.70;;;;;;5079318;28;959;-35
2022/03/19 01:05:08;;;;;;;;;;;22.00;50.50;;;;;;5078327;28;912;-33
2022/03/19 01:07:41;;;;;;;;;;;22.00;50.50;;;;;;5078740;28;1905;-33
2022/03/19 01:10:08;;;;;;;;;;;22.10;50.50;;;;;;5078938;28;1019;-33
2022/03/19 01:12:35;;;;;;;;;;;22.10;50.50;;;;;;5078524;28;865;-33
2022/03/19 01:15:03;;;;;;;;;;;22.00;50.60;;;;;;5078972;28;1147;-35
2022/03/19 01:17:30;;;;;;;;;;;22.00;50.60;;;;;;5077960;28;1000;-33
2022/03/19 01:19:59;;;;;;;;;;;22.00;50.50;;;;;;5075011;28;928;-33
2022/03/19 01:22:26;;;;;;;;;;;22.00;50.60;;;;;;5074504;28;897;-33
2022/03/19 01:24:53;;;;;;;;;;;22.00;50.60;;;;;;5077295;28;1031;-33
2022/03/19 01:27:20;;;;;;;;;;;22.00;50.50;;;;;;5077881;28;1906;-33
2022/03/19 01:29:47;;;;;;;;;;;22.00;50.60;;;;;;5078604;28;993;-33
2022/03/19 01:32:15;;;;;;;;;;;22.00;50.50;;;;;;5077352;28;1011;-33
2022/03/19 01:34:41;;;;;;;;;;;22.00;50.50;;;;;;5078471;28;984;-33
2022/03/19 01:37:08;;;;;;;;;;;22.00;50.50;;;;;;5077354;28;949;-33
2022/03/19 01:39:35;;;;;;;;;;;22.00;50.60;;;;;;5077610;28;1006;-33
2022/03/19 01:42:02;;;;;;;;;;;22.00;50.50;;;;;;5077702;28;989;-33
2022/03/19 01:44:29;;;;;;;;;;;22.00;50.60;;;;;;5077918;28;987;-33
2022/03/19 01:47:00;;;;;;;;;;;21.90;50.60;;;;;;5077843;28;1922;-33
2022/03/19 01:49:28;;;;;;;;;;;21.90;50.70;;;;;;5078333;28;1248;-33
2022/03/19 01:51:55;;;;;;;;;;;22.00;50.70;;;;;;5076678;28;972;-33
2022/03/19 01:54:26;;;;;;;;;;;21.90;50.60;;;;;;5077739;28;979;-33
2022/03/19 01:56:55;;;;;;;;;;;21.90;50.70;;;;;;5077314;28;1077;-33
2022/03/19 01:59:23;;;;;;;;;;;21.90;50.70;;;;;;5077782;28;994;-34
2022/03/19 02:01:49;;;;;;;;;;;21.90;50.70;;;;;;5077644;28;948;-33
2022/03/19 02:04:16;;;;;;;;;;;21.90;50.50;;;;;;5078332;28;1000;-33
2022/03/19 02:06:45;;;;;;;;;;;21.90;50.60;;;;;;5077910;28;943;-33
2022/03/19 02:09:12;;;;;;;;;;;21.90;50.50;;;;;;5078197;28;1980;-33
2022/03/19 02:11:41;;;;;;;;;;;21.90;50.60;;;;;;5077366;28;1012;-33
2022/03/19 02:14:08;;;;;;;;;;;21.90;50.60;;;;;;5077810;28;941;-33
2022/03/19 02:16:35;;;;;;;;;;;21.90;50.60;;;;;;5075903;28;976;-33
2022/03/19 02:19:01;;;;;;;;;;;21.90;50.60;;;;;;5077192;28;1007;-33
2022/03/19 02:21:38;;;;;;;;;;;21.90;50.50;;;;;;5077448;28;932;-33
2022/03/19 02:26:51;;;;;;;;;;;21.90;50.50;;;;;;5077141;28;621;-33
2022/03/19 02:29:17;;;;;;;;;;;21.90;50.60;;;;;;5077501;28;1902;-33
2022/03/19 02:31:45;;;;;;;;;;;21.90;50.50;;;;;;5077727;28;965;-33
2022/03/19 02:34:12;;;;;;;;;;;21.90;50.60;;;;;;5078263;28;1001;-34
2022/03/19 02:36:40;;;;;;;;;;;21.90;50.70;;;;;;5077573;28;968;-33
2022/03/19 02:39:12;;;;;;;;;;;21.90;50.70;;;;;;5077073;28;1005;-33
2022/03/19 02:41:41;;;;;;;;;;;21.90;50.60;;;;;;5077468;28;925;-34
2022/03/19 02:44:09;;;;;;;;;;;21.90;50.60;;;;;;5077076;28;925;-33
2022/03/19 02:46:37;;;;;;;;;;;21.90;51.80;;;;;;5077086;28;1000;-33
2022/03/19 02:49:03;;;;;;;;;;;21.90;50.70;;;;;;5077466;28;1902;-33
2022/03/19 02:51:33;;;;;;;;;;;21.90;50.70;;;;;;5076819;28;1024;-33
2022/03/19 02:53:59;;;;;;;;;;;21.90;50.70;;;;;;5076682;28;1002;-33
2022/03/19 02:56:27;;;;;;;;;;;21.90;50.70;;;;;;5077416;28;857;-33
2022/03/19 02:58:54;;;;;;;;;;;21.80;50.60;;;;;;5076660;28;1004;-33
2022/03/19 03:01:21;;;;;;;;;;;21.80;50.60;;;;;;5076866;28;1007;-33
2022/03/19 03:03:48;;;;;;;;;;;21.80;50.70;;;;;;5076983;28;1780;-33
2022/03/19 03:06:15;;;;;;;;;;;21.80;50.70;;;;;;5076893;28;1015;-33
2022/03/19 03:08:42;;;;;;;;;;;21.80;50.70;;;;;;5077951;28;1886;-33
2022/03/19 03:11:09;;;;;;;;;;;21.80;50.70;;;;;;5077013;28;983;-33
2022/03/19 03:13:37;;;;;;;;;;;21.80;50.70;;;;;;5076723;28;1007;-33
2022/03/19 03:16:04;;;;;;;;;;;21.80;50.70;;;;;;5077000;28;965;-33
2022/03/19 03:18:30;;;;;;;;;;;21.80;50.70;;;;;;5077217;28;830;-33
2022/03/19 03:20:59;;;;;;;;;;;21.80;50.70;;;;;;5076358;28;1182;-33
2022/03/19 03:23:26;;;;;;;;;;;21.80;50.60;;;;;;5076787;28;980;-33
2022/03/19 03:25:53;;;;;;;;;;;21.80;50.60;;;;;;5076393;28;987;-33
2022/03/19 03:28:20;;;;;;;;;;;21.80;50.50;;;;;;5077654;28;1901;-33
2022/03/19 03:30:48;;;;;;;;;;;21.70;50.60;;;;;;5076634;28;1007;-33
2022/03/19 03:33:15;;;;;;;;;;;21.70;50.70;;;;;;5076871;28;948;-33
2022/03/19 03:35:41;;;;;;;;;;;21.80;50.70;;;;;;5076828;28;1001;-33
2022/03/19 03:38:08;;;;;;;;;;;21.80;50.60;;;;;;5076908;28;1115;-33
2022/03/19 03:40:35;;;;;;;;;;;21.80;50.60;;;;;;5076761;28;1019;-33
2022/03/19 03:43:01;;;;;;;;;;;21.80;51.70;;;;;;5076607;28;940;-33
2022/03/19 03:45:29;;;;;;;;;;;21.80;50.60;;;;;;5076925;28;916;-34
2022/03/19 03:47:57;;;;;;;;;;;21.80;50.60;;;;;;5076612;28;1894;-34
2022/03/19 03:50:24;;;;;;;;;;;21.70;50.60;;;;;;5076175;28;1182;-33
2022/03/19 03:52:51;;;;;;;;;;;21.80;50.70;;;;;;5076125;28;964;-33
2022/03/19 03:55:18;;;;;;;;;;;21.70;50.60;;;;;;5076802;28;1015;-33
2022/03/19 03:57:44;;;;;;;;;;;21.70;50.70;;;;;;5076529;28;1003;-35
2022/03/19 04:00:11;;;;;;;;;;;21.70;50.70;;;;;;5075883;28;936;-33
2022/03/19 04:02:38;;;;;;;;;;;21.70;50.70;;;;;;5076286;28;1009;-33
2022/03/19 04:05:07;;;;;;;;;;;21.70;50.80;;;;;;5076392;28;984;-33
2022/03/19 04:07:34;;;;;;;;;;;21.70;50.80;;;;;;5075693;28;1011;-33
2022/03/19 04:10:01;;;;;;;;;;;21.70;50.80;;;;;;5076164;28;1917;-33
2022/03/19 04:12:28;;;;;;;;;;;21.70;50.70;;;;;;5076769;28;980;-34
2022/03/19 04:14:55;;;;;;;;;;;21.70;50.70;;;;;;5076599;28;940;-33
2022/03/19 04:17:22;;;;;;;;;;;21.70;50.70;;;;;;5080319;28;996;-33
2022/03/19 04:19:48;;;;;;;;;;;21.70;50.70;;;;;;5080110;28;1004;-35
2022/03/19 04:22:16;;;;;;;;;;;21.70;50.70;;;;;;5079968;28;924;-33
2022/03/19 04:24:43;;;;;;;;;;;21.70;50.70;;;;;;5079017;28;1027;-33
2022/03/19 04:27:10;;;;;;;;;;;21.70;50.70;;;;;;5080105;28;928;-33
2022/03/19 04:29:37;;;;;;;;;;;21.70;50.60;;;;;;5081371;28;1905;-33
2022/03/19 04:32:04;;;;;;;;;;;21.70;50.70;;;;;;5078955;28;1084;-33
2022/03/19 04:34:31;;;;;;;;;;;21.70;50.70;;;;;;5079371;28;989;-33
2022/03/19 04:36:57;;;;;;;;;;;21.70;50.70;;;;;;5078996;28;979;-33
2022/03/19 04:39:26;;;;;;;;;;;21.70;50.70;;;;;;5079299;28;936;-33
2022/03/19 04:41:53;;;;;;;;;;;21.70;50.70;;;;;;5079546;28;1044;-34
2022/03/19 04:44:20;;;;;;;;;;;21.70;50.70;;;;;;5078630;28;993;-33
2022/03/19 04:46:46;;;;;;;;;;;21.70;50.70;;;;;;5078753;28;1026;-33
2022/03/19 04:49:13;;;;;;;;;;;21.60;50.70;;;;;;5078820;28;1909;-33
2022/03/19 04:51:41;;;;;;;;;;;21.70;50.80;;;;;;5079765;28;1009;-33
2022/03/19 04:54:07;;;;;;;;;;;21.60;50.70;;;;;;5078834;28;1856;-33
2022/03/19 04:56:35;;;;;;;;;;;21.70;50.70;;;;;;5079167;28;1026;-33
2022/03/19 04:59:03;;;;;;;;;;;21.60;50.70;;;;;;5079660;28;937;-33
2022/03/19 05:01:30;;;;;;;;;;;21.70;50.70;;;;;;5078719;28;1004;-33
2022/03/19 05:03:57;;;;;;;;;;;21.60;50.70;;;;;;5079332;28;1012;-33
2022/03/19 05:06:24;;;;;;;;;;;21.60;50.70;;;;;;5080060;28;968;-33
2022/03/19 05:11:12;;;;;;;;;;;21.60;50.80;;;;;;5079276;28;1901;-34
2022/03/19 05:11:38;;;;;;;;;;;21.70;50.80;;;;;;5079486;28;870;-33
2022/03/19 05:14:06;;;;;;;;;;;21.60;50.70;;;;;;5078008;28;1003;-33
2022/03/19 05:16:33;;;;;;;;;;;21.60;50.80;;;;;;5078799;28;943;-33
2022/03/19 05:18:59;;;;;;;;;;;21.60;50.70;;;;;;5078766;28;848;-33
2022/03/19 05:21:27;;;;;;;;;;;21.60;50.70;;;;;;5079128;28;988;-33
2022/03/19 05:23:53;;;;;;;;;;;21.60;50.70;;;;;;5078158;28;992;-37
2022/03/19 05:26:20;;;;;;;;;;;21.60;50.80;;;;;;5077739;28;962;-33
2022/03/19 05:28:49;;;;;;;;;;;21.60;50.70;;;;;;5077661;28;1898;-33
2022/03/19 05:31:15;;;;;;;;;;;21.60;50.70;;;;;;5078305;28;962;-33
2022/03/19 05:36:27;;;;;;;;;;;21.60;50.70;;;;;;5078060;28;931;-33
2022/03/19 05:38:54;;;;;;;;;;;21.60;50.70;;;;;;5078301;28;925;-33
2022/03/19 05:41:21;;;;;;;;;;;21.60;50.70;;;;;;5078149;28;999;-33
2022/03/19 05:43:50;;;;;;;;;;;21.60;50.80;;;;;;5078343;28;967;-33
2022/03/19 05:46:16;;;;;;;;;;;21.60;50.80;;;;;;5077889;28;1023;-33
2022/03/19 05:48:43;;;;;;;;;;;21.60;50.70;;;;;;5078123;28;1910;-33
2022/03/19 05:51:10;;;;;;;;;;;21.60;51.90;;;;;;5077579;28;921;-33
2022/03/19 05:53:37;;;;;;;;;;;21.50;50.70;;;;;;5077439;28;981;-33
2022/03/19 05:56:04;;;;;;;;;;;21.60;50.80;;;;;;5077767;28;986;-33
2022/03/19 05:58:31;;;;;;;;;;;21.60;51.90;;;;;;5077578;28;917;-33
2022/03/19 06:00:59;;;;;;;;;;;21.60;50.60;;;;;;5077574;28;892;-33
2022/03/19 06:03:25;;;;;;;;;;;21.60;50.70;;;;;;5077329;28;1018;-34
2022/03/19 06:05:52;;;;;;;;;;;21.50;50.60;;;;;;5077132;28;1012;-33
2022/03/19 06:08:19;;;;;;;;;;;21.60;50.80;;;;;;5077658;28;1980;-33
2022/03/19 06:10:45;;;;;;;;;;;21.50;50.70;;;;;;5076742;28;1340;-33
2022/03/19 06:13:12;;;;;;;;;;;21.60;50.70;;;;;;5076806;28;977;-33
2022/03/19 06:15:39;;;;;;;;;;;21.60;50.70;;;;;;5077072;28;1078;-33
2022/03/19 06:18:07;;;;;;;;;;;21.60;50.70;;;;;;5076693;28;991;-33
2022/03/19 06:20:34;;;;;;;;;;;21.50;50.70;;;;;;5077234;28;979;-33
2022/03/19 06:23:00;;;;;;;;;;;21.60;50.70;;;;;;5076604;28;1036;-34
2022/03/19 06:25:27;;;;;;;;;;;21.60;50.70;;;;;;5076567;28;985;-33
2022/03/19 06:27:54;;;;;;;;;;;21.60;50.70;;;;;;5076624;28;1032;-33
2022/03/19 06:30:20;;;;;;;;;;;21.50;50.70;;;;;;5076520;28;1882;-33
2022/03/19 06:32:48;;;;;;;;;;;21.50;50.70;;;;;;5076228;28;921;-33
2022/03/19 06:37:19;;;;;;;;;;;21.50;50.60;;;;;;5077403;28;1003;-33
2022/03/19 06:38:02;;;;;;;;;;;21.50;50.60;;;;;;5076332;28;784;-33
2022/03/19 06:40:29;;;;;;;;;;;21.50;50.60;;;;;;5076039;28;1040;-33
2022/03/19 06:42:55;;;;;;;;;;;21.50;50.70;;;;;;5076428;28;1015;-33
2022/03/19 06:45:22;;;;;;;;;;;21.50;51.80;;;;;;5076458;28;1013;-33
2022/03/19 06:47:49;;;;;;;;;;;21.50;50.60;;;;;;5075980;28;1567;-33
2022/03/19 06:50:17;;;;;;;;;;;21.60;50.60;;;;;;5076200;28;1991;-33
2022/03/19 06:52:44;;;;;;;;;;;21.60;50.70;;;;;;5076001;28;937;-33
2022/03/19 06:55:11;;;;;;;;;;;21.60;50.70;;;;;;5076303;28;1339;-33
2022/03/19 06:57:37;;;;;;;;;;;21.60;50.70;;;;;;5076117;28;1842;-33
2022/03/19 07:00:04;;;;;;;;;;;21.50;50.60;;;;;;5075860;28;997;-33
2022/03/19 07:02:31;;;;;;;;;;;21.60;51.70;;;;;;5076065;28;980;-33
2022/03/19 07:04:58;;;;;;;;;;;21.60;50.50;;;;;;5076190;28;940;-33
2022/03/19 07:07:26;;;;;;;;;;;21.60;50.60;;;;;;5076158;28;955;-33
2022/03/19 07:09:54;;;;;;;;;;;21.60;50.60;;;;;;5075343;28;1975;-33
2022/03/19 07:12:21;;;;;;;;;;;21.60;50.60;;;;;;5075635;28;896;-34
2022/03/19 07:14:47;;;;;;;;;;;21.60;50.70;;;;;;5075883;28;999;-33
2022/03/19 07:17:14;;;;;;;;;;;21.50;50.50;;;;;;5075903;28;1110;-33
2022/03/19 07:19:41;;;;;;;;;;;21.50;50.60;;;;;;5075944;28;849;-33
2022/03/19 07:22:07;;;;;;;;;;;21.60;50.70;;;;;;5075138;28;1111;-33
2022/03/19 07:24:37;;;;;;;;;;;21.60;50.60;;;;;;5074832;28;1011;-33
2022/03/19 07:27:06;;;;;;;;;;;21.60;50.60;;;;;;5075507;28;1124;-33
2022/03/19 07:29:34;;;;;;;;;;;21.60;50.60;;;;;;5075126;28;1984;-33
2022/03/19 07:32:01;;;;;;;;;;;21.60;50.70;;;;;;5075846;28;1003;-33
2022/03/19 07:34:28;;;;;;;;;;;21.60;50.60;;;;;;5075012;28;914;-33
2022/03/19 07:36:54;;;;;;;;;;;21.60;50.60;;;;;;5074884;28;973;-33
2022/03/19 07:39:21;;;;;;;;;;;21.60;50.60;;;;;;5074853;28;1781;-33
2022/03/19 07:41:48;;;;;;;;;;;21.60;50.60;;;;;;5075890;28;999;-35
2022/03/19 07:44:16;;;;;;;;;;;21.60;50.60;;;;;;5076135;28;920;-33
2022/03/19 07:46:42;;;;;;;;;;;21.60;50.70;;;;;;5075618;28;991;-36
2022/03/19 07:49:10;;;;;;;;;;;21.60;50.60;;;;;;5075085;28;1910;-36
2022/03/19 07:51:37;;;;;;;;;;;21.60;50.50;;;;;;5078788;28;945;-35
2022/03/19 07:54:03;;;;;;;;;;;21.60;50.70;;;;;;5079456;28;1003;-35
2022/03/19 07:56:30;;;;;;;;;;;21.60;50.50;;;;;;5079403;28;1037;-35
2022/03/19 07:58:58;;;;;;;;;;;21.60;50.60;;;;;;5079113;28;976;-35
2022/03/19 08:01:25;;;;;;;;;;;21.60;50.70;;;;;;5077784;28;982;-35
2022/03/19 08:03:51;;;;;;;;;;;21.60;50.60;;;;;;5079007;28;960;-33
2022/03/19 08:06:19;;;;;;;;;;;21.60;50.70;;;;;;5078236;28;995;-33
2022/03/19 08:08:45;;;;;;;;;;;21.60;50.70;;;;;;5078677;28;1015;-35
2022/03/19 08:11:14;;;;;;;;;;;21.60;50.70;;;;;;5079003;28;2015;-35
2022/03/19 08:13:41;;;;;;;;;;;21.50;50.60;;;;;;5077825;28;956;-33
2022/03/19 08:16:10;;;;;;;;;;;21.60;50.70;;;;;;5077702;28;1063;-33
2022/03/19 08:18:37;;;;;;;;;;;21.60;50.70;;;;;;5080312;28;1004;-33
2022/03/19 08:21:04;;;;;;;;;;;21.50;50.60;;;;;;5079126;28;1025;-35
2022/03/19 08:23:31;;;;;;;;;;;21.60;50.70;;;;;;5077664;28;897;-35
2022/03/19 08:25:57;;;;;;;;;;;21.60;50.50;;;;;;5078023;28;1000;-35
2022/03/19 08:28:24;;;;;;;;;;;21.60;50.70;;;;;;5078336;28;998;-35
2022/03/19 08:30:51;;;;;;;;;;;21.60;50.50;;;;;;5077939;28;1902;-35
2022/03/19 08:33:19;;;;;;;;;;;21.60;50.40;;;;;;5077726;28;1117;-35
2022/03/19 08:35:46;;;;;;;;;;;21.60;51.50;;;;;;5077799;28;1040;-35
2022/03/19 08:40:57;;;;;;;;;;;21.60;50.50;;;;;;5077119;28;908;-35
2022/03/19 08:43:23;;;;;;;;;;;21.60;50.50;;;;;;5076356;28;1011;-35
2022/03/19 08:45:50;;;;;;;;;;;21.60;50.50;;;;;;5077403;28;964;-35
2022/03/19 08:48:18;;;;;;;;;;;21.60;50.50;;;;;;5077211;28;933;-35
2022/03/19 08:50:46;;;;;;;;;;;21.60;50.50;;;;;;5079055;28;1906;-35
2022/03/19 08:53:13;;;;;;;;;;;21.60;50.50;;;;;;5078682;28;975;-35
2022/03/19 08:55:40;;;;;;;;;;;21.60;50.50;;;;;;5080064;28;996;-35
2022/03/19 08:58:07;;;;;;;;;;;21.60;50.50;;;;;;5078182;28;924;-35
2022/03/19 09:00:34;;;;;;;;;;;21.60;50.30;;;;;;5078860;28;903;-35
2022/03/19 09:03:00;;;;;;;;;;;21.60;50.50;;;;;;5078485;28;1011;-35
2022/03/19 09:05:28;;;;;;;;;;;21.70;50.30;;;;;;5079382;28;1004;-35
2022/03/19 09:07:56;;;;;;;;;;;21.60;50.40;;;;;;5077767;28;949;-35
2022/03/19 09:10:23;;;;;;;;;;;21.60;50.40;;;;;;5077715;28;1905;-35
2022/03/19 09:12:50;;;;;;;;;;;21.70;50.30;;;;;;5076308;28;989;-35
2022/03/19 09:15:17;;;;;;;;;;;21.60;50.30;;;;;;5075477;28;1002;-35
2022/03/19 09:17:43;;;;;;;;;;;21.60;50.30;;;;;;5077550;28;889;-35
2022/03/19 09:20:11;;;;;;;;;;;21.60;50.20;;;;;;5077871;28;1020;-35
2022/03/19 09:22:38;;;;;;;;;;;21.70;50.20;;;;;;5078247;28;931;-35
2022/03/19 09:25:07;;;;;;;;;;;21.70;50.30;;;;;;5078005;28;1039;-35
2022/03/19 09:27:34;;;;;;;;;;;21.70;50.00;;;;;;5078535;28;948;-35
2022/03/19 09:30:00;;;;;;;;;;;21.70;50.00;;;;;;5078009;28;1980;-35
2022/03/19 09:32:27;;;;;;;;;;;21.80;50.10;;;;;;5077840;28;991;-35
2022/03/19 09:34:54;;;;;;;;;;;21.80;49.90;;;;;;5077821;28;1050;-35
2022/03/19 09:37:20;;;;;;;;;;;21.80;49.80;;;;;;5077635;28;964;-35
2022/03/19 09:39:49;;;;;;;;;;;21.90;50.90;;;;;;5078252;28;984;-35
2022/03/19 09:42:17;;;;;;;;;;;21.80;49.90;;;;;;5076391;28;948;-35
2022/03/19 09:44:44;;;;;;;;;;;21.80;49.80;;;;;;5075510;28;1019;-35
2022/03/19 09:47:11;;;;;;;;;;;21.80;49.70;;;;;;5076115;28;885;-35
2022/03/19 09:49:38;;;;;;;;;;;21.80;50.00;;;;;;5076072;28;1972;-35
2022/03/19 09:52:05;;;;;;;;;;;21.80;49.70;;;;;;5075563;28;1121;-35
2022/03/19 09:54:33;;;;;;;;;;;21.80;49.70;;;;;;5073833;28;936;-35
2022/03/19 09:56:59;;;;;;;;;;;21.80;49.90;;;;;;5076184;28;948;-35
2022/03/19 09:59:28;;;;;;;;;;;21.90;50.00;;;;;;5074646;28;944;-35
2022/03/19 10:01:55;;;;;;;;;;;21.90;49.80;;;;;;5076629;28;1015;-35
2022/03/19 10:04:21;;;;;;;;;;;21.90;49.90;;;;;;5076424;28;991;-35
2022/03/19 10:09:33;;;;;;;;;;;21.90;50.00;;;;;;5075094;28;1996;-35
2022/03/19 10:12:01;;;;;;;;;;;21.80;49.70;;;;;;5076324;28;1093;-35
2022/03/19 10:14:32;;;;;;;;;;;21.80;50.00;;;;;;5077055;28;928;-35
2022/03/19 10:16:59;;;;;;;;;;;21.90;49.90;;;;;;5075771;28;1108;-35
2022/03/19 10:19:25;;;;;;;;;;;21.90;50.00;;;;;;5075916;28;1019;-35
2022/03/19 10:21:54;;;;;;;;;;;21.90;50.00;;;;;;5077011;28;1000;-35
2022/03/19 10:24:22;;;;;;;;;;;21.90;50.10;;;;;;5076070;28;944;-35
2022/03/19 10:26:49;;;;;;;;;;;21.90;50.10;;;;;;5075580;28;991;-35
2022/03/19 10:29:18;;;;;;;;;;;21.90;50.00;;;;;;5075786;28;993;-35
2022/03/19 10:31:47;;;;;;;;;;;21.80;50.00;;;;;;5075495;28;1914;-35
2022/03/19 10:34:14;;;;;;;;;;;21.80;49.90;;;;;;5076365;28;928;-35
2022/03/19 10:36:42;;;;;;;;;;;21.90;50.00;;;;;;5075170;28;996;-35
2022/03/19 10:39:12;;;;;;;;;;;21.90;50.00;;;;;;5075248;28;947;-35
2022/03/19 10:41:39;;;;;;;;;;;21.90;50.10;;;;;;5075803;28;1022;-35
2022/03/19 10:44:13;;;;;;;;;;;21.80;50.00;;;;;;5075181;28;979;-35
2022/03/19 10:46:43;;;;;;;;;;;21.90;50.00;;;;;;5075218;28;897;-35
2022/03/19 10:49:14;;;;;;;;;;;21.90;49.90;;;;;;5075480;28;1008;-35
2022/03/19 10:51:43;;;;;;;;;;;21.90;49.80;;;;;;5074540;28;1926;-35
2022/03/19 10:54:11;;;;;;;;;;;21.90;49.90;;;;;;5073845;28;1015;-35
2022/03/19 10:56:38;;;;;;;;;;;21.90;49.80;;;;;;5074624;28;999;-35
2022/03/19 10:59:05;;;;;;;;;;;21.90;49.80;;;;;;5074769;28;927;-35
2022/03/19 11:01:35;;;;;;;;;;;21.90;49.80;;;;;;5074336;28;1050;-35
2022/03/19 11:04:02;;;;;;;;;;;21.90;50.00;;;;;;5074523;28;953;-35
2022/03/19 11:06:32;;;;;;;;;;;21.90;50.00;;;;;;5073999;28;965;-35
2022/03/19 11:09:05;;;;;;;;;;;21.90;50.00;;;;;;5075301;28;1011;-35
2022/03/19 11:11:33;;;;;;;;;;;21.90;49.90;;;;;;5074940;28;1981;-35
2022/03/19 11:14:02;;;;;;;;;;;21.90;50.00;;;;;;5072815;28;991;-40
2022/03/19 11:16:31;;;;;;;;;;;21.90;50.00;;;;;;5075015;28;972;-35
2022/03/19 11:18:58;;;;;;;;;;;21.80;49.90;;;;;;5074856;28;901;-35
2022/03/19 11:21:27;;;;;;;;;;;21.90;50.10;;;;;;5074239;28;1194;-35
2022/03/19 11:23:57;;;;;;;;;;;21.90;50.00;;;;;;5075610;28;1013;-35
2022/03/19 11:26:24;;;;;;;;;;;21.90;50.00;;;;;;5079906;28;1018;-35
2022/03/19 11:28:51;;;;;;;;;;;21.90;49.90;;;;;;5081012;28;928;-35
2022/03/19 11:31:23;;;;;;;;;;;21.90;49.80;;;;;;5079937;28;1983;-35
2022/03/19 11:33:50;;;;;;;;;;;21.90;49.90;;;;;;5079443;28;1000;-35
2022/03/19 11:36:17;;;;;;;;;;;21.90;50.00;;;;;;5078960;28;1068;-35
2022/03/19 11:38:50;;;;;;;;;;;21.90;49.90;;;;;;5079957;28;953;-35
2022/03/19 11:41:21;;;;;;;;;;;21.90;50.00;;;;;;5079374;28;1034;-35
2022/03/19 11:43:48;;;;;;;;;;;21.90;50.10;;;;;;5079217;28;1004;-35
2022/03/19 11:46:15;;;;;;;;;;;21.90;50.00;;;;;;5079186;28;920;-34
2022/03/19 11:48:47;;;;;;;;;;;21.90;49.80;;;;;;5079549;28;857;-35
2022/03/19 11:51:16;;;;;;;;;;;21.90;50.00;;;;;;5078981;28;1999;-35
2022/03/19 11:53:50;;;;;;;;;;;21.90;49.80;;;;;;5078311;28;1820;-35
2022/03/19 11:56:19;;;;;;;;;;;21.90;49.80;;;;;;5078462;28;986;-35
2022/03/19 11:58:46;;;;;;;;;;;21.90;49.80;;;;;;5078403;28;1015;-35
2022/03/19 12:01:13;;;;;;;;;;;22.00;49.70;;;;;;5077641;28;1002;-35
2022/03/19 12:04:10;;;;;;;;;;;22.00;49.60;;;;;;5076993;28;945;-35
2022/03/19 12:06:39;;;;;;;;;;;22.00;49.60;;;;;;5076863;28;877;-35
2022/03/19 12:09:06;;;;;;;;;;;22.00;49.60;;;;;;5077473;28;932;-35
2022/03/19 12:11:35;;;;;;;;;;;22.00;49.50;;;;;;5076336;28;1981;-35
2022/03/19 12:14:08;;;;;;;;;;;22.00;49.40;;;;;;5076779;28;973;-35
2022/03/19 12:16:40;;;;;;;;;;;22.00;49.40;;;;;;5077083;28;1164;-35
2022/03/19 12:19:08;;;;;;;;;;;22.00;49.40;;;;;;5076555;28;936;-35
2022/03/19 12:21:35;;;;;;;;;;;22.00;49.30;;;;;;5078120;28;1027;-35
2022/03/19 12:24:17;;;;;;;;;;;22.00;49.40;;;;;;5077701;28;1020;-35
2022/03/19 12:26:47;;;;;;;;;;;22.00;49.60;;;;;;5077159;28;1409;-35
2022/03/19 12:29:14;;;;;;;;;;;22.00;49.40;;;;;;5077923;28;972;-35
2022/03/19 12:31:44;;;;;;;;;;;22.00;49.40;;;;;;5076813;28;1910;-35
2022/03/19 12:34:15;;;;;;;;;;;22.00;49.40;;;;;;5076641;28;873;-35
2022/03/19 12:36:41;;;;;;;;;;;22.00;49.50;;;;;;5075685;28;932;-35
2022/03/19 12:39:08;;;;;;;;;;;22.00;49.40;;;;;;5076820;28;936;-35
2022/03/19 12:41:35;;;;;;;;;;;22.00;49.40;;;;;;5077877;28;932;-35
2022/03/19 12:44:04;;;;;;;;;;;22.00;49.40;;;;;;5077298;28;1008;-35
2022/03/19 12:46:32;;;;;;;;;;;22.00;49.40;;;;;;5077236;28;964;-35
2022/03/19 12:49:02;;;;;;;;;;;22.00;49.40;;;;;;5076012;28;1029;-35
2022/03/19 12:51:29;;;;;;;;;;;22.00;49.50;;;;;;5076303;28;1906;-35
2022/03/19 12:53:56;;;;;;;;;;;22.00;49.50;;;;;;5076802;28;1018;-35
2022/03/19 12:56:24;;;;;;;;;;;22.00;49.30;;;;;;5075593;28;953;-35
2022/03/19 12:58:51;;;;;;;;;;;22.00;49.40;;;;;;5076921;28;961;-35
2022/03/19 13:01:21;;;;;;;;;;;22.00;49.50;;;;;;5077847;28;912;-35
2022/03/19 13:03:52;;;;;;;;;;;22.00;49.50;;;;;;5078093;28;948;-35
2022/03/19 13:06:26;;;;;;;;;;;22.00;49.60;;;;;;5076619;28;1200;-35
2022/03/19 13:08:53;;;;;;;;;;;22.00;49.50;;;;;;5076189;28;1004;-35
2022/03/19 13:11:20;;;;;;;;;;;22.00;49.40;;;;;;5076223;28;1901;-35
2022/03/19 13:13:47;;;;;;;;;;;22.00;49.40;;;;;;5075310;28;936;-35
2022/03/19 13:16:25;;;;;;;;;;;22.00;49.40;;;;;;5077159;28;972;-35
2022/03/19 13:18:59;;;;;;;;;;;22.10;49.50;;;;;;5076995;28;1034;-35
2022/03/19 13:21:27;;;;;;;;;;;22.00;49.40;;;;;;5075384;28;929;-35
2022/03/19 13:23:54;;;;;;;;;;;22.10;49.30;;;;;;5076470;28;943;-35
2022/03/19 13:26:21;;;;;;;;;;;22.10;49.20;;;;;;5075521;28;1053;-35
2022/03/19 13:29:05;;;;;;;;;;;22.10;49.30;;;;;;5076287;28;858;-35
2022/03/19 13:31:38;;;;;;;;;;;22.10;49.20;;;;;;5074995;28;1983;-35
2022/03/19 13:34:07;;;;;;;;;;;22.10;49.20;;;;;;5077465;28;889;-35
2022/03/19 13:36:34;;;;;;;;;;;22.10;49.20;;;;;;5076241;28;1024;-35
2022/03/19 13:39:01;;;;;;;;;;;22.00;49.10;;;;;;5076562;28;952;-35
2022/03/19 13:41:28;;;;;;;;;;;22.00;49.20;;;;;;5075742;28;952;-35
2022/03/19 13:43:55;;;;;;;;;;;22.00;49.20;;;;;;5076103;28;1024;-35
2022/03/19 13:46:22;;;;;;;;;;;22.10;49.20;;;;;;5075685;28;993;-35
2022/03/19 13:48:51;;;;;;;;;;;22.10;49.20;;;;;;5075799;28;1144;-36
2022/03/19 13:51:19;;;;;;;;;;;22.10;49.20;;;;;;5075538;28;1906;-35
2022/03/19 13:53:47;;;;;;;;;;;22.10;49.20;;;;;;5076156;28;956;-35
2022/03/19 13:56:14;;;;;;;;;;;22.10;49.20;;;;;;5074944;28;985;-35
2022/03/19 13:58:56;;;;;;;;;;;22.20;49.10;;;;;;5076248;28;1012;-35
2022/03/19 14:01:23;;;;;;;;;;;22.20;48.90;;;;;;5074858;28;1020;-35
2022/03/19 14:03:50;;;;;;;;;;;22.20;48.90;;;;;;5074357;28;996;-35
2022/03/19 14:06:16;;;;;;;;;;;22.20;48.80;;;;;;5075020;28;900;-35
2022/03/19 14:08:48;;;;;;;;;;;22.20;48.80;;;;;;5074909;28;993;-35
2022/03/19 14:11:15;;;;;;;;;;;22.20;48.90;;;;;;5074606;28;1914;-35
2022/03/19 14:13:44;;;;;;;;;;;22.20;48.90;;;;;;5075593;28;1019;-35
2022/03/19 14:16:12;;;;;;;;;;;22.20;48.90;;;;;;5075829;28;1017;-34
2022/03/19 14:18:40;;;;;;;;;;;22.30;48.80;;;;;;5053951;28;1013;-35
2022/03/19 14:21:09;;;;;;;;;;;22.30;48.90;;;;;;5074872;28;901;-35
2022/03/19 14:23:36;;;;;;;;;;;22.30;48.70;;;;;;5075948;28;929;-36
2022/03/19 14:26:05;;;;;;;;;;;22.30;48.80;;;;;;5076183;28;1025;-35
2022/03/19 14:28:32;;;;;;;;;;;22.30;48.90;;;;;;5075024;28;984;-35
2022/03/19 14:30:58;;;;;;;;;;;22.30;48.90;;;;;;5075068;28;1979;-34
2022/03/19 14:33:25;;;;;;;;;;;22.30;49.00;;;;;;5076534;28;880;-42
2022/03/19 14:35:53;;;;;;;;;;;22.30;49.10;;;;;;5076517;28;977;-36
2022/03/19 14:38:20;;;;;;;;;;;22.30;49.10;;;;;;5075399;28;963;-34
2022/03/19 14:40:47;;;;;;;;;;;22.30;48.90;;;;;;5073908;28;992;-34
2022/03/19 14:43:16;;;;;;;;;;;22.40;49.00;;;;;;5075736;28;979;-36
2022/03/19 14:45:47;;;;;;;;;;;22.40;49.10;;;;;;5074693;28;1012;-35
2022/03/19 14:48:14;;;;;;;;;;;22.40;49.00;;;;;;5074696;28;1008;-36
2022/03/19 14:50:41;;;;;;;;;;;22.50;48.90;;;;;;5075116;28;1244;-35